createdAt,value
2018-10-06T00:00:48.778Z,97.71
2018-10-06T00:01:49.036Z,97.61
2018-10-06T00:02:49.018Z,97.40
2018-10-06T00:03:49.007Z,97.50
2018-10-06T00:04:48.732Z,97.50
2018-10-06T00:05:48.848Z,97.50
2018-10-06T00:06:49.250Z,97.61
2018-10-06T00:07:48.713Z,97.91
2018-10-06T00:08:48.686Z,97.91
2018-10-06T00:09:48.760Z,97.91
2018-10-06T00:10:48.935Z,97.45
2018-10-06T00:11:48.657Z,97.81
2018-10-06T00:12:48.659Z,97.65
2018-10-06T00:13:48.634Z,98.07
2018-10-06T00:14:48.892Z,98.07
2018-10-06T00:15:48.613Z,97.34
2018-10-06T00:16:48.673Z,98.22
2018-10-06T00:17:48.866Z,97.96
2018-10-06T00:18:48.578Z,98.16
2018-10-06T00:19:48.836Z,98.22
2018-10-06T00:20:48.560Z,98.16
2018-10-06T00:21:49.084Z,98.07
2018-10-06T00:22:48.540Z,98.27
2018-10-06T00:23:48.619Z,97.75
2018-10-06T00:24:48.780Z,98.27
2018-10-06T00:25:48.766Z,98.83
2018-10-06T00:26:48.501Z,98.58
2018-10-06T00:27:48.489Z,98.53
2018-10-06T00:28:48.481Z,98.63
2018-10-06T00:29:48.465Z,97.81
2018-10-06T00:30:48.470Z,97.71
2018-10-06T00:31:48.453Z,98.63
2018-10-06T00:32:48.429Z,97.81
2018-10-06T00:33:48.429Z,98.02
2018-10-06T00:34:48.419Z,97.91
2018-10-06T00:35:48.399Z,98.02
2018-10-06T00:36:48.658Z,97.91
2018-10-06T00:37:48.384Z,98.02
2018-10-06T00:38:48.478Z,97.91
2018-10-06T00:39:48.620Z,97.81
2018-10-06T00:40:48.345Z,98.43
2018-10-06T00:41:48.331Z,97.40
2018-10-06T00:42:48.326Z,97.61
2018-10-06T00:43:48.328Z,97.71
2018-10-06T00:44:48.559Z,97.40
2018-10-06T00:45:48.289Z,98.12
2018-10-06T00:46:48.288Z,97.81
2018-10-06T00:47:48.285Z,97.71
2018-10-06T00:48:48.255Z,97.61
2018-10-06T00:49:48.511Z,97.30
2018-10-06T00:50:48.508Z,97.81
2018-10-06T00:51:48.246Z,97.50
2018-10-06T00:52:48.220Z,97.40
2018-10-06T00:53:48.204Z,97.97
2018-10-06T00:54:48.199Z,97.30
2018-10-06T00:55:48.478Z,97.40
2018-10-06T00:56:48.180Z,97.71
2018-10-06T00:57:48.165Z,97.40
2018-10-06T00:58:48.198Z,97.20
2018-10-06T00:59:48.263Z,97.61
2018-10-06T01:00:48.145Z,97.86
2018-10-06T01:01:48.381Z,97.86
2018-10-06T01:02:48.376Z,97.34
2018-10-06T01:03:48.169Z,97.71
2018-10-06T01:04:48.085Z,97.81
2018-10-06T01:05:48.085Z,97.71
2018-10-06T01:06:48.199Z,97.81
2018-10-06T01:07:48.050Z,97.61
2018-10-06T01:08:49.707Z,97.81
2018-10-06T01:09:48.045Z,97.71
2018-10-06T01:10:48.019Z,97.86
2018-10-06T01:11:48.268Z,97.55
2018-10-06T01:12:47.999Z,97.55
2018-10-06T01:13:48.252Z,97.86
2018-10-06T01:14:47.993Z,97.45
2018-10-06T01:15:47.992Z,97.65
2018-10-06T01:16:47.963Z,97.34
2018-10-06T01:17:48.003Z,97.24
2018-10-06T01:18:47.934Z,97.65
2018-10-06T01:19:47.923Z,97.34
2018-10-06T01:20:47.917Z,97.39
2018-10-06T01:21:47.915Z,97.80
2018-10-06T01:22:47.911Z,97.80
2018-10-06T01:23:47.886Z,97.80
2018-10-06T01:24:48.033Z,97.91
2018-10-06T01:25:47.877Z,98.11
2018-10-06T01:26:47.886Z,98.21
2018-10-06T01:27:48.101Z,97.80
2018-10-06T01:28:48.107Z,98.21
2018-10-06T01:29:47.816Z,98.11
2018-10-06T01:30:48.170Z,98.72
2018-10-06T01:31:47.796Z,98.72
2018-10-06T01:32:47.779Z,98.93
2018-10-06T01:33:47.777Z,98.62
2018-10-06T01:34:47.772Z,98.32
2018-10-06T01:35:48.022Z,98.52
2018-10-06T01:36:47.734Z,98.62
2018-10-06T01:37:47.983Z,98.52
2018-10-06T01:38:47.723Z,98.42
2018-10-06T01:39:48.868Z,98.47
2018-10-06T01:40:47.701Z,98.37
2018-10-06T01:41:47.961Z,98.83
2018-10-06T01:42:47.673Z,98.93
2018-10-06T01:43:47.931Z,98.68
2018-10-06T01:44:47.649Z,98.52
2018-10-06T01:45:47.645Z,98.83
2018-10-06T01:46:47.638Z,98.72
2018-10-06T01:47:47.649Z,98.72
2018-10-06T01:48:47.631Z,98.83
2018-10-06T01:49:47.668Z,98.52
2018-10-06T01:50:47.607Z,98.62
2018-10-06T01:51:47.574Z,98.21
2018-10-06T01:52:47.563Z,98.52
2018-10-06T01:53:47.825Z,98.47
2018-10-06T01:54:47.548Z,98.58
2018-10-06T01:55:47.789Z,98.58
2018-10-06T01:56:47.785Z,98.37
2018-10-06T01:57:47.510Z,98.88
2018-10-06T01:58:47.500Z,98.37
2018-10-06T01:59:47.485Z,98.68
2018-10-06T02:00:47.483Z,98.47
2018-10-06T02:01:47.478Z,98.47
2018-10-06T02:02:47.986Z,98.78
2018-10-06T02:03:47.444Z,98.47
2018-10-06T02:04:47.703Z,98.88
2018-10-06T02:05:47.439Z,98.47
2018-10-06T02:06:47.415Z,98.16
2018-10-06T02:07:47.406Z,98.47
2018-10-06T02:08:47.655Z,98.37
2018-10-06T02:09:47.377Z,98.58
2018-10-06T02:10:47.635Z,98.37
2018-10-06T02:11:47.626Z,98.37
2018-10-06T02:12:47.612Z,98.68
2018-10-06T02:13:47.352Z,98.68
2018-10-06T02:14:47.337Z,98.37
2018-10-06T02:15:47.316Z,98.37
2018-10-06T02:16:47.305Z,98.99
2018-10-06T02:17:47.309Z,98.99
2018-10-06T02:18:47.559Z,98.94
2018-10-06T02:19:47.274Z,98.47
2018-10-06T02:20:47.264Z,98.58
2018-10-06T02:21:47.263Z,98.33
2018-10-06T02:22:47.253Z,98.37
2018-10-06T02:23:47.503Z,98.78
2018-10-06T02:24:47.477Z,98.37
2018-10-06T02:25:47.294Z,98.43
2018-10-06T02:26:47.196Z,98.22
2018-10-06T02:27:47.312Z,98.63
2018-10-06T02:28:47.516Z,98.22
2018-10-06T02:29:47.168Z,98.33
2018-10-06T02:30:47.430Z,98.53
2018-10-06T02:31:47.249Z,98.49
2018-10-06T02:32:47.131Z,98.74
2018-10-06T02:33:47.132Z,97.81
2018-10-06T02:34:47.128Z,97.81
2018-10-06T02:35:47.099Z,98.12
2018-10-06T02:36:47.173Z,98.22
2018-10-06T02:37:47.087Z,98.12
2018-10-06T02:38:47.338Z,97.77
2018-10-06T02:39:47.055Z,98.12
2018-10-06T02:40:47.057Z,98.12
2018-10-06T02:41:47.046Z,98.22
2018-10-06T02:42:47.043Z,97.81
2018-10-06T02:43:47.281Z,98.12
2018-10-06T02:44:47.271Z,98.12
2018-10-06T02:45:46.991Z,98.22
2018-10-06T02:46:47.348Z,98.12
2018-10-06T02:47:46.970Z,98.07
2018-10-06T02:48:47.233Z,97.91
2018-10-06T02:49:47.220Z,97.71
2018-10-06T02:50:46.950Z,97.66
2018-10-06T02:51:46.935Z,98.02
2018-10-06T02:52:46.925Z,97.30
2018-10-06T02:53:46.912Z,97.50
2018-10-06T02:54:47.160Z,97.40
2018-10-06T02:55:46.884Z,97.36
2018-10-06T02:56:47.153Z,97.71
2018-10-06T02:57:46.887Z,97.50
2018-10-06T02:58:46.850Z,97.97
2018-10-06T02:59:47.103Z,97.61
2018-10-06T03:00:46.831Z,97.81
2018-10-06T03:01:46.818Z,97.61
2018-10-06T03:02:46.807Z,97.61
2018-10-06T03:03:47.080Z,97.36
2018-10-06T03:04:46.786Z,97.81
2018-10-06T03:05:46.898Z,97.50
2018-10-06T03:06:46.776Z,97.81
2018-10-06T03:07:46.775Z,97.91
2018-10-06T03:08:46.751Z,97.40
2018-10-06T03:09:46.736Z,97.91
2018-10-06T03:10:46.721Z,97.91
2018-10-06T03:11:46.710Z,97.81
2018-10-06T03:12:46.713Z,98.22
2018-10-06T03:13:46.687Z,97.71
2018-10-06T03:14:46.696Z,97.91
2018-10-06T03:15:46.680Z,97.50
2018-10-06T03:16:46.658Z,97.40
2018-10-06T03:17:46.644Z,97.71
2018-10-06T03:18:46.661Z,98.12
2018-10-06T03:19:46.624Z,97.81
2018-10-06T03:20:46.619Z,97.61
2018-10-06T03:21:46.629Z,97.61
2018-10-06T03:22:46.588Z,97.50
2018-10-06T03:23:47.743Z,97.61
2018-10-06T03:24:46.591Z,97.61
2018-10-06T03:25:46.574Z,97.40
2018-10-06T03:26:46.544Z,97.40
2018-10-06T03:27:46.538Z,98.12
2018-10-06T03:28:46.538Z,97.30
2018-10-06T03:29:46.797Z,97.30
2018-10-06T03:30:46.508Z,97.30
2018-10-06T03:31:46.495Z,97.30
2018-10-06T03:32:46.745Z,97.81
2018-10-06T03:33:46.469Z,97.50
2018-10-06T03:34:46.461Z,97.61
2018-10-06T03:35:46.453Z,97.91
2018-10-06T03:36:46.444Z,97.71
2018-10-06T03:37:46.425Z,97.61
2018-10-06T03:38:46.679Z,97.71
2018-10-06T03:39:46.406Z,97.71
2018-10-06T03:40:46.392Z,97.61
2018-10-06T03:41:46.383Z,97.40
2018-10-06T03:42:46.439Z,97.50
2018-10-06T03:43:46.365Z,97.71
2018-10-06T03:44:46.357Z,97.96
2018-10-06T03:45:46.362Z,98.16
2018-10-06T03:46:46.592Z,97.24
2018-10-06T03:47:46.559Z,97.86
2018-10-06T03:48:46.315Z,98.07
2018-10-06T03:49:46.323Z,97.55
2018-10-06T03:50:46.288Z,97.75
2018-10-06T03:51:46.296Z,97.65
2018-10-06T03:52:46.277Z,97.45
2018-10-06T03:53:46.523Z,97.55
2018-10-06T03:54:46.255Z,97.86
2018-10-06T03:55:46.251Z,97.75
2018-10-06T03:56:46.224Z,97.80
2018-10-06T03:57:46.226Z,97.80
2018-10-06T03:58:46.199Z,98.21
2018-10-06T03:59:46.203Z,98.42
2018-10-06T04:00:46.189Z,98.21
2018-10-06T04:01:46.492Z,98.00
2018-10-06T04:02:46.160Z,98.32
2018-10-06T04:03:46.166Z,98.32
2018-10-06T04:04:46.168Z,98.62
2018-10-06T04:05:46.129Z,98.52
2018-10-06T04:06:46.119Z,98.72
2018-10-06T04:07:46.110Z,98.42
2018-10-06T04:08:46.370Z,98.62
2018-10-06T04:09:46.343Z,98.62
2018-10-06T04:10:46.071Z,98.32
2018-10-06T04:11:46.079Z,98.62
2018-10-06T04:12:47.273Z,98.62
2018-10-06T04:13:46.050Z,98.72
2018-10-06T04:14:46.317Z,98.78
2018-10-06T04:15:46.285Z,98.72
2018-10-06T04:16:46.005Z,98.72
2018-10-06T04:17:45.993Z,98.78
2018-10-06T04:18:46.024Z,98.58
2018-10-06T04:19:45.978Z,98.42
2018-10-06T04:20:45.969Z,98.68
2018-10-06T04:21:45.957Z,98.37
2018-10-06T04:22:45.949Z,98.78
2018-10-06T04:23:45.948Z,98.68
2018-10-06T04:24:46.187Z,98.27
2018-10-06T04:25:45.910Z,97.86
2018-10-06T04:26:46.166Z,98.16
2018-10-06T04:27:45.895Z,98.16
2018-10-06T04:28:45.877Z,98.37
2018-10-06T04:29:45.866Z,97.96
2018-10-06T04:30:45.856Z,98.78
2018-10-06T04:31:46.124Z,97.75
2018-10-06T04:32:45.844Z,97.75
2018-10-06T04:33:45.824Z,97.96
2018-10-06T04:34:46.068Z,98.37
2018-10-06T04:35:45.814Z,98.07
2018-10-06T04:36:45.801Z,97.75
2018-10-06T04:37:45.780Z,97.45
2018-10-06T04:38:45.767Z,97.96
2018-10-06T04:39:45.761Z,98.16
2018-10-06T04:40:45.750Z,98.07
2018-10-06T04:41:45.755Z,97.34
2018-10-06T04:42:46.000Z,97.65
2018-10-06T04:43:45.974Z,97.75
2018-10-06T04:44:45.704Z,97.49
2018-10-06T04:45:45.701Z,97.55
2018-10-06T04:46:45.681Z,98.00
2018-10-06T04:47:45.676Z,98.00
2018-10-06T04:48:45.664Z,98.00
2018-10-06T04:49:46.176Z,98.21
2018-10-06T04:50:46.019Z,98.32
2018-10-06T04:51:45.629Z,97.91
2018-10-06T04:52:45.621Z,97.91
2018-10-06T04:53:45.603Z,98.72
2018-10-06T04:54:45.594Z,98.52
2018-10-06T04:55:45.603Z,98.57
2018-10-06T04:56:45.579Z,98.83
2018-10-06T04:57:45.579Z,98.36
2018-10-06T04:58:45.556Z,98.57
2018-10-06T04:59:45.554Z,98.57
2018-10-06T05:00:45.533Z,98.77
2018-10-06T05:01:45.802Z,99.18
2018-10-06T05:02:45.519Z,98.83
2018-10-06T05:03:45.549Z,99.49
2018-10-06T05:04:45.491Z,99.49
2018-10-06T05:05:46.016Z,99.69
2018-10-06T05:06:45.463Z,99.24
2018-10-06T05:07:45.456Z,99.34
2018-10-06T05:08:45.471Z,99.24
2018-10-06T05:09:45.453Z,99.34
2018-10-06T05:10:45.430Z,99.34
2018-10-06T05:11:45.422Z,99.54
2018-10-06T05:12:45.400Z,99.34
2018-10-06T05:13:45.403Z,99.13
2018-10-06T05:14:45.395Z,99.99
2018-10-06T05:15:45.369Z,99.99
2018-10-06T05:16:45.372Z,99.99
2018-10-06T05:17:45.350Z,99.99
2018-10-06T05:18:45.337Z,99.75
2018-10-06T05:19:45.848Z,99.85
2018-10-06T05:20:45.315Z,99.79
2018-10-06T05:21:45.317Z,99.99
2018-10-06T05:22:45.304Z,99.65
2018-10-06T05:23:45.712Z,99.99
2018-10-06T05:24:45.268Z,99.99
2018-10-06T05:25:45.285Z,99.99
2018-10-06T05:26:45.543Z,99.99
2018-10-06T05:27:45.241Z,99.99
2018-10-06T05:28:45.488Z,99.95
2018-10-06T05:29:45.482Z,99.69
2018-10-06T05:30:45.212Z,99.54
2018-10-06T05:31:45.215Z,99.90
2018-10-06T05:32:45.203Z,99.99
2018-10-06T05:33:45.175Z,99.99
2018-10-06T05:34:45.166Z,99.99
2018-10-06T05:35:45.152Z,99.99
2018-10-06T05:36:45.147Z,99.99
2018-10-06T05:37:45.133Z,99.99
2018-10-06T05:38:45.382Z,99.99
2018-10-06T05:39:45.118Z,99.99
2018-10-06T05:40:45.102Z,99.95
2018-10-06T05:41:45.089Z,99.99
2018-10-06T05:42:45.077Z,99.99
2018-10-06T05:43:45.060Z,99.75
2018-10-06T05:44:45.064Z,99.65
2018-10-06T05:45:45.057Z,99.75
2018-10-06T05:46:45.047Z,99.65
2018-10-06T05:47:45.056Z,99.65
2018-10-06T05:48:45.022Z,99.99
2018-10-06T05:49:45.015Z,99.99
2018-10-06T05:50:45.294Z,99.95
2018-10-06T05:51:45.001Z,99.99
2018-10-06T05:52:45.064Z,99.99
2018-10-06T05:53:45.224Z,99.65
2018-10-06T05:54:44.944Z,99.65
2018-10-06T05:55:44.946Z,99.75
2018-10-06T05:56:45.189Z,99.75
2018-10-06T05:57:44.906Z,99.75
2018-10-06T05:58:45.169Z,99.70
2018-10-06T05:59:44.896Z,99.75
2018-10-06T06:00:44.875Z,99.75
2018-10-06T06:01:45.124Z,99.91
2018-10-06T06:02:44.861Z,99.60
2018-10-06T06:03:45.383Z,99.80
2018-10-06T06:04:44.946Z,99.80
2018-10-06T06:05:44.829Z,99.40
2018-10-06T06:06:44.818Z,99.86
2018-10-06T06:07:44.806Z,99.70
2018-10-06T06:08:45.066Z,99.91
2018-10-06T06:09:44.821Z,99.99
2018-10-06T06:10:44.767Z,99.45
2018-10-06T06:11:44.758Z,99.35
2018-10-06T06:12:44.760Z,99.40
2018-10-06T06:13:44.744Z,99.50
2018-10-06T06:14:44.743Z,99.55
2018-10-06T06:15:44.819Z,99.45
2018-10-06T06:16:44.719Z,99.45
2018-10-06T06:17:44.958Z,99.40
2018-10-06T06:18:44.693Z,99.35
2018-10-06T06:19:44.681Z,99.45
2018-10-06T06:20:44.665Z,99.35
2018-10-06T06:21:44.921Z,99.25
2018-10-06T06:22:44.654Z,99.35
2018-10-06T06:23:44.652Z,99.25
2018-10-06T06:24:44.649Z,99.25
2018-10-06T06:25:44.935Z,99.35
2018-10-06T06:26:44.600Z,98.94
2018-10-06T06:27:44.600Z,98.83
2018-10-06T06:28:44.580Z,98.38
2018-10-06T06:29:44.824Z,98.79
2018-10-06T06:30:44.836Z,98.28
2018-10-06T06:31:44.552Z,98.53
2018-10-06T06:32:44.792Z,98.18
2018-10-06T06:33:44.531Z,98.49
2018-10-06T06:34:44.512Z,97.77
2018-10-06T06:35:44.531Z,98.07
2018-10-06T06:36:44.492Z,97.82
2018-10-06T06:37:44.738Z,98.03
2018-10-06T06:38:44.523Z,97.62
2018-10-06T06:39:44.467Z,97.82
2018-10-06T06:40:44.449Z,97.72
2018-10-06T06:41:44.442Z,97.31
2018-10-06T06:42:44.428Z,97.21
2018-10-06T06:43:44.510Z,97.41
2018-10-06T06:44:44.411Z,97.52
2018-10-06T06:45:44.396Z,97.21
2018-10-06T06:46:44.446Z,96.96
2018-10-06T06:47:44.370Z,97.37
2018-10-06T06:48:44.368Z,96.75
2018-10-06T06:49:45.381Z,96.55
2018-10-06T06:50:44.596Z,96.34
2018-10-06T06:51:44.595Z,96.75
2018-10-06T06:52:44.322Z,96.66
2018-10-06T06:53:44.301Z,96.75
2018-10-06T06:54:44.299Z,96.61
2018-10-06T06:55:44.309Z,96.41
2018-10-06T06:56:44.620Z,96.34
2018-10-06T06:57:44.807Z,95.79
2018-10-06T06:58:44.272Z,96.25
2018-10-06T06:59:44.506Z,96.41
2018-10-06T07:00:44.253Z,96.55
2018-10-06T07:01:44.217Z,96.71
2018-10-06T07:02:44.204Z,96.71
2018-10-06T07:03:44.544Z,96.81
2018-10-06T07:04:44.311Z,96.30
2018-10-06T07:05:44.244Z,96.30
2018-10-06T07:06:44.170Z,96.51
2018-10-06T07:07:44.149Z,96.67
2018-10-06T07:08:44.136Z,96.71
2018-10-06T07:09:44.128Z,96.77
2018-10-06T07:10:44.380Z,95.75
2018-10-06T07:11:44.372Z,96.36
2018-10-06T07:12:44.232Z,95.39
2018-10-06T07:13:44.350Z,95.13
2018-10-06T07:14:44.071Z,95.50
2018-10-06T07:15:44.058Z,95.39
2018-10-06T07:16:44.059Z,95.50
2018-10-06T07:17:44.048Z,95.09
2018-10-06T07:18:44.362Z,95.29
2018-10-06T07:19:44.032Z,95.09
2018-10-06T07:20:44.006Z,94.98
2018-10-06T07:21:43.993Z,95.35
2018-10-06T07:22:44.112Z,95.15
2018-10-06T07:23:43.972Z,94.84
2018-10-06T07:24:43.969Z,94.84
2018-10-06T07:25:44.210Z,94.43
2018-10-06T07:26:43.942Z,93.82
2018-10-06T07:27:46.758Z,93.92
2018-10-06T07:28:43.941Z,94.08
2018-10-06T07:29:43.936Z,93.77
2018-10-06T07:30:43.896Z,93.57
2018-10-06T07:31:44.041Z,93.37
2018-10-06T07:32:43.869Z,93.37
2018-10-06T07:33:43.860Z,93.06
2018-10-06T07:34:43.845Z,93.26
2018-10-06T07:35:44.130Z,93.37
2018-10-06T07:36:44.334Z,93.22
2018-10-06T07:37:43.834Z,92.71
2018-10-06T07:38:44.065Z,92.61
2018-10-06T07:39:43.790Z,92.71
2018-10-06T07:40:43.834Z,92.50
2018-10-06T07:41:44.042Z,92.77
2018-10-06T07:42:43.762Z,92.50
2018-10-06T07:43:43.759Z,92.36
2018-10-06T07:44:44.086Z,93.07
2018-10-06T07:45:43.847Z,93.07
2018-10-06T07:46:43.717Z,92.57
2018-10-06T07:47:44.881Z,91.96
2018-10-06T07:48:43.697Z,91.35
2018-10-06T07:49:43.701Z,91.09
2018-10-06T07:50:43.674Z,91.61
2018-10-06T07:51:43.956Z,92.01
2018-10-06T07:52:43.656Z,91.40
2018-10-06T07:53:43.651Z,91.56
2018-10-06T07:54:43.634Z,90.85
2018-10-06T07:55:45.142Z,90.64
2018-10-06T07:56:43.663Z,90.64
2018-10-06T07:57:43.611Z,90.55
2018-10-06T07:58:43.712Z,90.81
2018-10-06T07:59:43.578Z,91.26
2018-10-06T08:00:43.616Z,90.14
2018-10-06T08:01:43.571Z,90.03
2018-10-06T08:02:43.553Z,89.59
2018-10-06T08:03:43.546Z,89.48
2018-10-06T08:04:43.523Z,88.87
2018-10-06T08:05:43.527Z,89.28
2018-10-06T08:06:43.503Z,89.03
2018-10-06T08:07:43.521Z,88.93
2018-10-06T08:08:43.504Z,88.02
2018-10-06T08:09:43.472Z,88.83
2018-10-06T08:10:43.456Z,89.44
2018-10-06T08:11:43.448Z,88.28
2018-10-06T08:12:43.436Z,87.98
2018-10-06T08:13:43.755Z,87.87
2018-10-06T08:14:43.685Z,88.69
2018-10-06T08:15:43.662Z,88.48
2018-10-06T08:16:43.676Z,88.59
2018-10-06T08:17:43.397Z,87.73
2018-10-06T08:18:43.367Z,87.63
2018-10-06T08:19:43.625Z,88.04
2018-10-06T08:20:43.349Z,87.23
2018-10-06T08:21:43.350Z,88.13
2018-10-06T08:22:43.346Z,86.61
2018-10-06T08:23:43.582Z,86.88
2018-10-06T08:24:43.305Z,86.37
2018-10-06T08:25:43.298Z,86.68
2018-10-06T08:26:43.294Z,85.01
2018-10-06T08:27:44.297Z,85.01
2018-10-06T08:28:43.255Z,84.91
2018-10-06T08:29:43.279Z,83.54
2018-10-06T08:30:43.232Z,83.85
2018-10-06T08:31:43.230Z,83.45
2018-10-06T08:32:43.212Z,83.61
2018-10-06T08:33:43.467Z,83.71
2018-10-06T08:34:43.313Z,82.59
2018-10-06T08:35:43.453Z,82.90
2018-10-06T08:36:43.169Z,82.56
2018-10-06T08:37:43.182Z,81.34
2018-10-06T08:38:43.151Z,81.24
2018-10-06T08:39:43.171Z,81.44
2018-10-06T08:40:43.139Z,81.44
2018-10-06T08:41:43.121Z,81.60
2018-10-06T08:42:43.172Z,81.10
2018-10-06T08:43:43.198Z,80.29
2018-10-06T08:44:43.341Z,81.46
2018-10-06T08:45:43.071Z,80.19
2018-10-06T08:46:43.077Z,80.15
2018-10-06T08:47:43.311Z,79.94
2018-10-06T08:48:43.036Z,80.35
2018-10-06T08:49:43.049Z,79.20
2018-10-06T08:50:43.022Z,79.30
2018-10-06T08:51:43.010Z,80.01
2018-10-06T08:52:43.320Z,78.79
2018-10-06T08:53:43.050Z,79.30
2018-10-06T08:54:42.972Z,79.26
2018-10-06T08:55:42.964Z,78.55
2018-10-06T08:56:43.068Z,78.66
2018-10-06T08:57:42.944Z,78.96
2018-10-06T08:58:42.944Z,78.66
2018-10-06T08:59:43.181Z,77.95
2018-10-06T09:00:42.909Z,77.61
2018-10-06T09:01:42.954Z,77.30
2018-10-06T09:02:42.956Z,76.50
2018-10-06T09:03:43.417Z,76.56
2018-10-06T09:04:42.866Z,76.76
2018-10-06T09:05:42.959Z,77.06
2018-10-06T09:06:42.846Z,76.15
2018-10-06T09:07:42.835Z,76.02
2018-10-06T09:08:43.084Z,77.03
2018-10-06T09:09:43.086Z,75.71
2018-10-06T09:10:42.997Z,74.60
2018-10-06T09:11:42.872Z,75.31
2018-10-06T09:12:42.778Z,74.66
2018-10-06T09:13:42.765Z,74.87
2018-10-06T09:14:43.030Z,75.37
2018-10-06T09:15:42.747Z,74.66
2018-10-06T09:16:42.810Z,74.43
2018-10-06T09:17:42.752Z,74.87
2018-10-06T09:18:42.715Z,73.96
2018-10-06T09:19:42.960Z,73.86
2018-10-06T09:20:42.978Z,73.32
2018-10-06T09:21:42.687Z,73.93
2018-10-06T09:22:43.198Z,73.72
2018-10-06T09:23:42.664Z,74.13
2018-10-06T09:24:42.651Z,73.28
2018-10-06T09:25:42.631Z,73.28
2018-10-06T09:26:42.620Z,73.08
2018-10-06T09:27:42.878Z,72.88
2018-10-06T09:28:42.869Z,72.85
2018-10-06T09:29:42.587Z,71.84
2018-10-06T09:30:42.663Z,71.64
2018-10-06T09:31:42.567Z,71.23
2018-10-06T09:32:42.820Z,71.30
2018-10-06T09:33:42.808Z,70.83
2018-10-06T09:34:42.550Z,71.00
2018-10-06T09:35:42.789Z,70.79
2018-10-06T09:36:42.515Z,71.00
2018-10-06T09:37:42.499Z,70.49
2018-10-06T09:38:42.759Z,70.69
2018-10-06T09:39:42.598Z,70.09
2018-10-06T09:40:42.486Z,70.06
2018-10-06T09:41:42.519Z,69.75
2018-10-06T09:42:42.841Z,69.75
2018-10-06T09:43:42.510Z,70.42
2018-10-06T09:44:42.421Z,70.62
2018-10-06T09:45:42.425Z,69.42
2018-10-06T09:46:42.934Z,69.52
2018-10-06T09:47:42.667Z,69.62
2018-10-06T09:48:42.660Z,69.62
2018-10-06T09:49:42.375Z,68.88
2018-10-06T09:50:42.358Z,69.49
2018-10-06T09:51:43.603Z,68.68
2018-10-06T09:52:42.443Z,68.78
2018-10-06T09:53:42.382Z,68.98
2018-10-06T09:54:42.464Z,68.15
2018-10-06T09:55:42.303Z,68.04
2018-10-06T09:56:42.909Z,68.35
2018-10-06T09:57:42.284Z,68.85
2018-10-06T09:58:42.279Z,68.55
2018-10-06T09:59:42.526Z,68.01
2018-10-06T10:00:42.248Z,67.91
2018-10-06T10:01:42.245Z,68.31
2018-10-06T10:02:42.236Z,67.51
2018-10-06T10:03:42.228Z,68.11
2018-10-06T10:04:42.207Z,67.81
2018-10-06T10:05:42.483Z,67.58
2018-10-06T10:06:42.248Z,67.07
2018-10-06T10:07:42.205Z,66.07
2018-10-06T10:08:42.162Z,66.00
2018-10-06T10:09:42.164Z,66.37
2018-10-06T10:10:42.156Z,65.47
2018-10-06T10:11:42.398Z,66.07
2018-10-06T10:12:42.193Z,66.03
2018-10-06T10:13:42.364Z,65.53
2018-10-06T10:14:42.106Z,65.33
2018-10-06T10:15:42.088Z,64.53
2018-10-06T10:16:42.078Z,65.23
2018-10-06T10:17:42.147Z,65.23
2018-10-06T10:18:42.336Z,65.30
2018-10-06T10:19:42.040Z,64.90
2018-10-06T10:20:42.083Z,65.10
2018-10-06T10:21:42.364Z,65.60
2018-10-06T10:22:42.189Z,65.00
2018-10-06T10:23:42.055Z,65.41
2018-10-06T10:24:41.985Z,65.80
2018-10-06T10:25:42.244Z,65.27
2018-10-06T10:26:41.967Z,65.07
2018-10-06T10:27:41.960Z,64.37
2018-10-06T10:28:42.257Z,64.17
2018-10-06T10:29:41.937Z,64.34
2018-10-06T10:30:42.446Z,63.03
2018-10-06T10:31:42.174Z,63.53
2018-10-06T10:32:41.916Z,63.43
2018-10-06T10:33:41.889Z,64.43
2018-10-06T10:34:41.890Z,64.34
2018-10-06T10:35:41.885Z,63.13
2018-10-06T10:36:41.958Z,63.31
2018-10-06T10:37:42.181Z,63.31
2018-10-06T10:38:41.832Z,62.90
2018-10-06T10:39:41.922Z,63.10
2018-10-06T10:40:41.817Z,62.40
2018-10-06T10:41:41.799Z,62.80
2018-10-06T10:42:41.911Z,62.40
2018-10-06T10:43:41.791Z,62.07
2018-10-06T10:44:42.033Z,62.07
2018-10-06T10:45:42.022Z,62.27
2018-10-06T10:46:41.745Z,62.27
2018-10-06T10:47:41.731Z,62.87
2018-10-06T10:48:41.988Z,62.84
2018-10-06T10:49:41.725Z,62.77
2018-10-06T10:50:41.761Z,63.37
2018-10-06T10:51:41.967Z,63.47
2018-10-06T10:52:41.683Z,62.97
2018-10-06T10:53:42.051Z,63.45
2018-10-06T10:54:41.745Z,64.34
2018-10-06T10:55:42.260Z,62.74
2018-10-06T10:56:41.897Z,62.84
2018-10-06T10:57:41.679Z,61.94
2018-10-06T10:58:41.619Z,63.24
2018-10-06T10:59:41.751Z,62.34
2018-10-06T11:00:41.595Z,62.44
2018-10-06T11:01:41.853Z,62.84
2018-10-06T11:02:41.833Z,62.64
2018-10-06T11:03:41.673Z,61.11
2018-10-06T11:04:41.605Z,60.64
2018-10-06T11:05:41.557Z,60.31
2018-10-06T11:06:41.549Z,61.61
2018-10-06T11:07:41.777Z,62.01
2018-10-06T11:08:43.082Z,60.61
2018-10-06T11:09:41.507Z,61.01
2018-10-06T11:10:41.497Z,62.01
2018-10-06T11:11:41.484Z,62.71
2018-10-06T11:12:41.744Z,61.71
2018-10-06T11:13:41.825Z,61.91
2018-10-06T11:14:41.449Z,63.01
2018-10-06T11:15:41.742Z,62.71
2018-10-06T11:16:41.424Z,62.78
2018-10-06T11:17:41.424Z,62.61
2018-10-06T11:18:41.668Z,62.48
2018-10-06T11:19:41.418Z,62.38
2018-10-06T11:20:41.653Z,62.08
2018-10-06T11:21:41.384Z,62.38
2018-10-06T11:22:41.378Z,62.08
2018-10-06T11:23:41.353Z,61.88
2018-10-06T11:24:41.628Z,61.58
2018-10-06T11:25:41.331Z,62.38
2018-10-06T11:26:41.316Z,62.38
2018-10-06T11:27:41.574Z,62.48
2018-10-06T11:28:41.301Z,61.88
2018-10-06T11:29:41.557Z,61.58
2018-10-06T11:30:41.542Z,61.88
2018-10-06T11:31:41.272Z,60.68
2018-10-06T11:32:41.279Z,61.88
2018-10-06T11:33:41.294Z,60.98
2018-10-06T11:34:41.255Z,60.28
2018-10-06T11:35:41.218Z,60.55
2018-10-06T11:36:41.473Z,61.75
2018-10-06T11:37:41.640Z,62.25
2018-10-06T11:38:41.458Z,62.45
2018-10-06T11:39:41.307Z,61.95
2018-10-06T11:40:41.194Z,61.75
2018-10-06T11:41:41.185Z,62.15
2018-10-06T11:42:41.157Z,61.95
2018-10-06T11:43:41.402Z,61.55
2018-10-06T11:44:41.128Z,60.45
2018-10-06T11:45:41.117Z,60.45
2018-10-06T11:46:41.371Z,61.15
2018-10-06T11:47:41.096Z,61.05
2018-10-06T11:48:41.095Z,61.75
2018-10-06T11:49:41.107Z,60.65
2018-10-06T11:50:41.065Z,61.55
2018-10-06T11:51:41.047Z,61.55
2018-10-06T11:52:41.040Z,60.85
2018-10-06T11:53:41.055Z,60.15
2018-10-06T11:54:41.023Z,60.45
2018-10-06T11:55:41.269Z,60.25
2018-10-06T11:56:41.259Z,59.95
2018-10-06T11:57:40.982Z,60.12
2018-10-06T11:58:40.968Z,59.82
2018-10-06T11:59:41.037Z,60.02
2018-10-06T12:00:40.979Z,59.92
2018-10-06T12:01:40.946Z,59.19
2018-10-06T12:02:40.940Z,59.49
2018-10-06T12:03:40.917Z,60.19
2018-10-06T12:04:40.908Z,60.10
2018-10-06T12:05:40.913Z,59.49
2018-10-06T12:06:40.904Z,59.19
2018-10-06T12:07:40.872Z,59.86
2018-10-06T12:08:40.859Z,59.97
2018-10-06T12:09:40.861Z,58.97
2018-10-06T12:10:40.839Z,58.56
2018-10-06T12:11:40.838Z,59.97
2018-10-06T12:12:40.824Z,58.26
2018-10-06T12:13:40.802Z,58.06
2018-10-06T12:14:41.322Z,58.64
2018-10-06T12:15:40.798Z,58.44
2018-10-06T12:16:40.771Z,57.34
2018-10-06T12:17:40.760Z,57.24
2018-10-06T12:18:40.751Z,56.44
2018-10-06T12:19:40.735Z,55.64
2018-10-06T12:20:41.109Z,54.24
2018-10-06T12:21:40.977Z,52.84
2018-10-06T12:22:40.825Z,51.25
2018-10-06T12:23:40.695Z,52.14
2018-10-06T12:24:40.973Z,52.52
2018-10-06T12:25:40.744Z,51.92
2018-10-06T12:26:40.678Z,50.20
2018-10-06T12:27:40.726Z,50.90
2018-10-06T12:28:40.638Z,50.70
2018-10-06T12:29:40.633Z,51.29
2018-10-06T12:30:41.141Z,50.10
2018-10-06T12:31:40.878Z,50.40
2018-10-06T12:32:41.008Z,50.99
2018-10-06T12:33:40.610Z,51.59
2018-10-06T12:34:40.669Z,50.60
2018-10-06T12:35:40.638Z,51.40
2018-10-06T12:36:40.807Z,50.49
2018-10-06T12:37:40.810Z,51.70
2018-10-06T12:38:40.803Z,51.50
2018-10-06T12:39:40.518Z,50.99
2018-10-06T12:40:40.517Z,50.07
2018-10-06T12:41:40.496Z,50.47
2018-10-06T12:42:40.490Z,50.57
2018-10-06T12:43:40.748Z,50.37
2018-10-06T12:44:40.517Z,50.07
2018-10-06T12:45:40.473Z,50.57
2018-10-06T12:46:40.516Z,50.67
2018-10-06T12:47:40.428Z,50.37
2018-10-06T12:48:40.421Z,49.77
2018-10-06T12:49:40.406Z,49.38
2018-10-06T12:50:40.406Z,50.07
2018-10-06T12:51:40.663Z,50.77
2018-10-06T12:52:40.847Z,50.87